sensor_id;sensor_type;location;lat;lon;timestamp;pressure;altitude;pressure_sealevel;temperature;humidity
33506;BME280;19843;51.040;13.782;2023-02-15T00:02:01;101883.34;;;2.44;98.28
33506;BME280;19843;51.040;13.782;2023-02-15T00:04:29;101882.38;;;2.49;97.89
33506;BME280;19843;51.040;13.782;2023-02-15T00:07:14;101880.66;;;2.47;98.40
33506;BME280;19843;51.040;13.782;2023-02-15T00:09:42;101882.38;;;2.49;98.18
33506;BME280;19843;51.040;13.782;2023-02-15T00:12:10;101882.38;;;2.51;98.36
33506;BME280;19843;51.040;13.782;2023-02-15T00:14:37;101886.75;;;2.55;98.40
33506;BME280;19843;51.040;13.782;2023-02-15T00:17:04;101882.34;;;2.56;98.57
33506;BME280;19843;51.040;13.782;2023-02-15T00:19:31;101877.09;;;2.49;98.25
33506;BME280;19843;51.040;13.782;2023-02-15T00:21:59;101884.22;;;2.44;98.09
33506;BME280;19843;51.040;13.782;2023-02-15T00:24:28;101880.63;;;2.48;98.22
33506;BME280;19843;51.040;13.782;2023-02-15T00:26:55;101872.69;;;2.47;98.08
33506;BME280;19843;51.040;13.782;2023-02-15T00:29:22;101876.34;;;2.37;98.22
33506;BME280;19843;51.040;13.782;2023-02-15T00:31:50;101878.09;;;2.41;97.79
33506;BME280;19843;51.040;13.782;2023-02-15T00:34:19;101877.22;;;2.36;97.63
33506;BME280;19843;51.040;13.782;2023-02-15T00:36:46;101884.47;;;2.15;98.17
33506;BME280;19843;51.040;13.782;2023-02-15T00:39:14;101879.13;;;2.23;98.47
33506;BME280;19843;51.040;13.782;2023-02-15T00:41:43;101874.94;;;1.93;98.63
33506;BME280;19843;51.040;13.782;2023-02-15T00:44:10;101874.94;;;1.96;99.07
33506;BME280;19843;51.040;13.782;2023-02-15T00:46:37;101867.84;;;2.02;98.92
33506;BME280;19843;51.040;13.782;2023-02-15T00:49:05;101866.97;;;2.00;98.81
33506;BME280;19843;51.040;13.782;2023-02-15T00:51:32;101865.31;;;1.87;99.31
33506;BME280;19843;51.040;13.782;2023-02-15T00:53:59;101863.53;;;1.89;99.06
33506;BME280;19843;51.040;13.782;2023-02-15T00:56:27;101865.31;;;1.85;99.07
33506;BME280;19843;51.040;13.782;2023-02-15T00:58:56;101863.56;;;1.83;98.70
33506;BME280;19843;51.040;13.782;2023-02-15T01:01:23;101859.16;;;1.83;99.03
33506;BME280;19843;51.040;13.782;2023-02-15T01:03:51;101855.66;;;1.78;99.23
33506;BME280;19843;51.040;13.782;2023-02-15T01:06:19;101854.72;;;1.84;98.81
33506;BME280;19843;51.040;13.782;2023-02-15T01:08:46;101850.41;;;1.75;98.62
33506;BME280;19843;51.040;13.782;2023-02-15T01:11:15;101847.88;;;1.61;98.75
33506;BME280;19843;51.040;13.782;2023-02-15T01:13:48;101845.13;;;1.72;99.00
33506;BME280;19843;51.040;13.782;2023-02-15T01:16:17;101831.09;;;1.61;99.21
33506;BME280;19843;51.040;13.782;2023-02-15T01:18:45;101846.97;;;1.64;100.00
33506;BME280;19843;51.040;13.782;2023-02-15T01:21:13;101850.47;;;1.63;99.67
33506;BME280;19843;51.040;13.782;2023-02-15T01:23:41;101839.88;;;1.67;99.62
33506;BME280;19843;51.040;13.782;2023-02-15T01:26:08;101852.19;;;1.72;99.18
33506;BME280;19843;51.040;13.782;2023-02-15T01:28:36;101842.44;;;1.78;98.79
33506;BME280;19843;51.040;13.782;2023-02-15T01:31:07;101841.56;;;1.75;98.75
33506;BME280;19843;51.040;13.782;2023-02-15T01:33:36;101845.19;;;1.66;99.11
33506;BME280;19843;51.040;13.782;2023-02-15T01:36:03;101842.56;;;1.64;99.68
33506;BME280;19843;51.040;13.782;2023-02-15T01:38:31;101836.38;;;1.61;100.00
33506;BME280;19843;51.040;13.782;2023-02-15T01:40:58;101827.50;;;1.70;99.85
33506;BME280;19843;51.040;13.782;2023-02-15T01:43:40;101832.88;;;1.59;99.70
33506;BME280;19843;51.040;13.782;2023-02-15T01:46:08;101826.56;;;1.77;99.97
33506;BME280;19843;51.040;13.782;2023-02-15T01:48:37;101825.75;;;1.73;99.79
33506;BME280;19843;51.040;13.782;2023-02-15T01:51:06;101821.28;;;1.80;99.16
33506;BME280;19843;51.040;13.782;2023-02-15T01:53:34;101819.66;;;1.60;99.21
33506;BME280;19843;51.040;13.782;2023-02-15T01:56:06;101807.38;;;1.55;99.80
33506;BME280;19843;51.040;13.782;2023-02-15T01:58:35;101808.13;;;1.67;100.00
33506;BME280;19843;51.040;13.782;2023-02-15T02:01:02;101793.97;;;1.76;99.52
33506;BME280;19843;51.040;13.782;2023-02-15T02:03:35;101798.44;;;1.71;99.54
33506;BME280;19843;51.040;13.782;2023-02-15T02:06:07;101799.34;;;1.69;99.18
33506;BME280;19843;51.040;13.782;2023-02-15T02:08:34;101794.00;;;1.73;99.56
33506;BME280;19843;51.040;13.782;2023-02-15T02:11:02;101787.03;;;1.63;98.96
33506;BME280;19843;51.040;13.782;2023-02-15T02:13:29;101785.28;;;1.62;99.76
33506;BME280;19843;51.040;13.782;2023-02-15T02:15:58;101773.72;;;1.72;100.00
33506;BME280;19843;51.040;13.782;2023-02-15T02:18:32;101776.41;;;1.69;99.79
33506;BME280;19843;51.040;13.782;2023-02-15T02:21:16;101777.28;;;1.68;99.61
33506;BME280;19843;51.040;13.782;2023-02-15T02:29:44;101770.31;;;1.59;99.89
33506;BME280;19843;51.040;13.782;2023-02-15T02:32:20;101770.34;;;1.55;99.86
33506;BME280;19843;51.040;13.782;2023-02-15T02:34:57;101779.13;;;1.60;99.90
33506;BME280;19843;51.040;13.782;2023-02-15T02:37:28;101778.28;;;1.53;99.82
33506;BME280;19843;51.040;13.782;2023-02-15T02:40:00;101767.72;;;1.55;100.00
33506;BME280;19843;51.040;13.782;2023-02-15T02:42:32;101764.22;;;1.50;99.96
33506;BME280;19843;51.040;13.782;2023-02-15T02:45:03;101765.91;;;1.58;99.92
33506;BME280;19843;51.040;13.782;2023-02-15T02:47:32;101769.50;;;1.53;99.70
33506;BME280;19843;51.040;13.782;2023-02-15T02:50:05;101764.25;;;1.46;99.69
33506;BME280;19843;51.040;13.782;2023-02-15T02:52:42;101761.59;;;1.48;99.63
33506;BME280;19843;51.040;13.782;2023-02-15T02:55:11;101759.78;;;1.55;99.37
33506;BME280;19843;51.040;13.782;2023-02-15T02:57:40;101756.25;;;1.56;99.25
33506;BME280;19843;51.040;13.782;2023-02-15T03:00:10;101757.13;;;1.55;99.21
33506;BME280;19843;51.040;13.782;2023-02-15T03:02:39;101751.84;;;1.55;99.68
33506;BME280;19843;51.040;13.782;2023-02-15T03:05:11;101754.53;;;1.49;99.21
33506;BME280;19843;51.040;13.782;2023-02-15T03:07:41;101750.09;;;1.54;99.21
33506;BME280;19843;51.040;13.782;2023-02-15T03:10:09;101760.66;;;1.57;99.42
33506;BME280;19843;51.040;13.782;2023-02-15T03:12:37;101756.16;;;1.63;99.37
33506;BME280;19843;51.040;13.782;2023-02-15T03:15:06;101757.06;;;1.61;98.95
33506;BME280;19843;51.040;13.782;2023-02-15T03:17:35;101751.78;;;1.64;98.85
33506;BME280;19843;51.040;13.782;2023-02-15T03:20:04;101759.88;;;1.42;98.69
33506;BME280;19843;51.040;13.782;2023-02-15T03:22:38;101751.13;;;1.31;99.45
33506;BME280;19843;51.040;13.782;2023-02-15T03:25:08;101753.72;;;1.40;99.45
33506;BME280;19843;51.040;13.782;2023-02-15T03:27:37;101751.03;;;1.48;99.25
33506;BME280;19843;51.040;13.782;2023-02-15T03:30:06;101751.06;;;1.42;99.10
33506;BME280;19843;51.040;13.782;2023-02-15T03:32:34;101757.28;;;1.33;99.10
33506;BME280;19843;51.040;13.782;2023-02-15T03:35:04;101760.03;;;1.19;99.52
33506;BME280;19843;51.040;13.782;2023-02-15T03:37:32;101759.16;;;1.16;99.82
33506;BME280;19843;51.040;13.782;2023-02-15T03:40:03;101759.16;;;1.16;100.00
33506;BME280;19843;51.040;13.782;2023-02-15T03:42:48;101764.50;;;1.10;99.86
33506;BME280;19843;51.040;13.782;2023-02-15T03:45:20;101752.19;;;1.06;100.00
33506;BME280;19843;51.040;13.782;2023-02-15T03:47:50;101760.97;;;1.11;100.00
33506;BME280;19843;51.040;13.782;2023-02-15T03:50:20;101754.88;;;1.01;99.98
33506;BME280;19843;51.040;13.782;2023-02-15T03:53:06;101761.94;;;0.96;99.77
33506;BME280;19843;51.040;13.782;2023-02-15T03:55:37;101763.72;;;0.94;100.00
33506;BME280;19843;51.040;13.782;2023-02-15T03:58:04;101760.19;;;0.96;100.00
33506;BME280;19843;51.040;13.782;2023-02-15T04:00:51;101750.41;;;1.14;99.63
33506;BME280;19843;51.040;13.782;2023-02-15T04:03:40;101745.94;;;1.20;99.58
33506;BME280;19843;51.040;13.782;2023-02-15T04:06:09;101752.13;;;1.13;99.83
33506;BME280;19843;51.040;13.782;2023-02-15T04:08:36;101757.41;;;1.15;99.85
33506;BME280;19843;51.040;13.782;2023-02-15T04:11:23;101755.72;;;1.06;99.89
33506;BME280;19843;51.040;13.782;2023-02-15T04:13:50;101746.00;;;1.08;100.00
33506;BME280;19843;51.040;13.782;2023-02-15T04:16:22;101743.41;;;1.02;100.00
33506;BME280;19843;51.040;13.782;2023-02-15T04:18:49;101749.56;;;1.04;100.00
33506;BME280;19843;51.040;13.782;2023-02-15T04:21:33;101748.56;;;1.22;100.00
33506;BME280;19843;51.040;13.782;2023-02-15T04:24:18;101739.72;;;1.24;99.58
33506;BME280;19843;51.040;13.782;2023-02-15T04:27:04;101749.50;;;1.15;99.64
33506;BME280;19843;51.040;13.782;2023-02-15T04:29:32;101755.72;;;1.01;99.92
33506;BME280;19843;51.040;13.782;2023-02-15T04:31:59;101748.69;;;1.02;100.00
33506;BME280;19843;51.040;13.782;2023-02-15T04:34:27;101753.88;;;1.16;100.00
33506;BME280;19843;51.040;13.782;2023-02-15T04:36:54;101751.31;;;1.03;100.00
33506;BME280;19843;51.040;13.782;2023-02-15T04:39:22;101749.63;;;0.93;100.00
33506;BME280;19843;51.040;13.782;2023-02-15T04:41:49;101752.28;;;0.93;100.00
33506;BME280;19843;51.040;13.782;2023-02-15T04:44:17;101748.78;;;0.85;100.00
33506;BME280;19843;51.040;13.782;2023-02-15T04:46:45;101738.16;;;0.94;100.00
33506;BME280;19843;51.040;13.782;2023-02-15T04:49:12;101736.38;;;1.02;100.00
33506;BME280;19843;51.040;13.782;2023-02-15T04:51:40;101744.28;;;0.99;100.00
33506;BME280;19843;51.040;13.782;2023-02-15T04:54:07;101738.13;;;1.02;100.00
33506;BME280;19843;51.040;13.782;2023-02-15T04:56:34;101727.59;;;0.94;100.00
33506;BME280;19843;51.040;13.782;2023-02-15T04:59:03;101732.84;;;1.03;100.00
33506;BME280;19843;51.040;13.782;2023-02-15T05:01:32;101724.03;;;1.01;100.00
33506;BME280;19843;51.040;13.782;2023-02-15T05:03:59;101730.16;;;1.07;100.00
33506;BME280;19843;51.040;13.782;2023-02-15T05:06:27;101729.31;;;1.01;100.00
33506;BME280;19843;51.040;13.782;2023-02-15T05:08:54;101719.63;;;1.02;100.00
33506;BME280;19843;51.040;13.782;2023-02-15T05:11:24;101720.53;;;0.99;100.00
33506;BME280;19843;51.040;13.782;2023-02-15T05:13:52;101722.28;;;0.97;100.00
33506;BME280;19843;51.040;13.782;2023-02-15T05:16:19;101719.63;;;1.03;99.72
33506;BME280;19843;51.040;13.782;2023-02-15T05:18:48;101713.47;;;1.04;99.96
33506;BME280;19843;51.040;13.782;2023-02-15T05:21:15;101710.78;;;1.09;99.52
33506;BME280;19843;51.040;13.782;2023-02-15T05:23:43;101710.72;;;1.17;98.90
33506;BME280;19843;51.040;13.782;2023-02-15T05:26:10;101708.13;;;1.11;99.62
33506;BME280;19843;51.040;13.782;2023-02-15T05:28:56;101713.38;;;1.17;99.62
33506;BME280;19843;51.040;13.782;2023-02-15T05:31:23;101711.59;;;1.19;99.31
33506;BME280;19843;51.040;13.782;2023-02-15T05:33:52;101718.63;;;1.23;99.37
33506;BME280;19843;51.040;13.782;2023-02-15T05:36:19;101714.25;;;1.20;99.32
33506;BME280;19843;51.040;13.782;2023-02-15T05:38:46;101718.69;;;1.12;99.50
33506;BME280;19843;51.040;13.782;2023-02-15T05:41:14;101715.97;;;1.21;99.23
33506;BME280;19843;51.040;13.782;2023-02-15T05:43:41;101702.75;;;1.23;98.91
33506;BME280;19843;51.040;13.782;2023-02-15T05:46:08;101716.84;;;1.25;99.08
33506;BME280;19843;51.040;13.782;2023-02-15T05:48:36;101712.47;;;1.21;99.64
33506;BME280;19843;51.040;13.782;2023-02-15T05:51:06;101709.81;;;1.18;99.67
33506;BME280;19843;51.040;13.782;2023-02-15T05:53:35;101712.41;;;1.27;99.45
33506;BME280;19843;51.040;13.782;2023-02-15T05:56:03;101712.44;;;1.22;99.80
33506;BME280;19843;51.040;13.782;2023-02-15T05:58:31;101714.13;;;1.31;99.41
33506;BME280;19843;51.040;13.782;2023-02-15T06:00:59;101717.75;;;1.21;99.52
33506;BME280;19843;51.040;13.782;2023-02-15T06:03:27;101712.53;;;1.12;99.86
33506;BME280;19843;51.040;13.782;2023-02-15T06:05:54;101713.44;;;1.09;99.95
33506;BME280;19843;51.040;13.782;2023-02-15T06:08:23;101714.25;;;1.20;99.88
33506;BME280;19843;51.040;13.782;2023-02-15T06:10:50;101723.00;;;1.22;99.21
33506;BME280;19843;51.040;13.782;2023-02-15T06:13:18;101720.41;;;1.19;99.02
33506;BME280;19843;51.040;13.782;2023-02-15T06:15:45;101712.47;;;1.18;98.95
33506;BME280;19843;51.040;13.782;2023-02-15T06:18:12;101718.66;;;1.17;99.46
33506;BME280;19843;51.040;13.782;2023-02-15T06:20:40;101712.50;;;1.16;99.46
33506;BME280;19843;51.040;13.782;2023-02-15T06:23:07;101719.53;;;1.20;99.43
33506;BME280;19843;51.040;13.782;2023-02-15T06:25:35;101715.97;;;1.21;99.19
33506;BME280;19843;51.040;13.782;2023-02-15T06:28:05;101714.25;;;1.20;99.24
33506;BME280;19843;51.040;13.782;2023-02-15T06:30:32;101709.81;;;1.18;99.36
33506;BME280;19843;51.040;13.782;2023-02-15T06:32:59;101704.53;;;1.21;99.30
33506;BME280;19843;51.040;13.782;2023-02-15T06:35:26;101706.25;;;1.28;99.21
33506;BME280;19843;51.040;13.782;2023-02-15T06:37:54;101708.03;;;1.24;99.26
33506;BME280;19843;51.040;13.782;2023-02-15T06:40:21;101707.97;;;1.32;99.24
33506;BME280;19843;51.040;13.782;2023-02-15T06:42:50;101704.47;;;1.30;99.04
33506;BME280;19843;51.040;13.782;2023-02-15T06:45:17;101715.00;;;1.33;99.07
33506;BME280;19843;51.040;13.782;2023-02-15T06:47:44;101711.50;;;1.34;99.26
33506;BME280;19843;51.040;13.782;2023-02-15T06:50:12;101710.59;;;1.37;99.28
33506;BME280;19843;51.040;13.782;2023-02-15T06:52:39;101709.69;;;1.39;99.26
33506;BME280;19843;51.040;13.782;2023-02-15T06:55:06;101721.00;;;1.55;98.74
33506;BME280;19843;51.040;13.782;2023-02-15T06:57:34;101706.94;;;1.47;98.55
33506;BME280;19843;51.040;13.782;2023-02-15T07:00:03;101706.91;;;1.53;98.69
33506;BME280;19843;51.040;13.782;2023-02-15T07:02:31;101708.66;;;1.56;98.70
33506;BME280;19843;51.040;13.782;2023-02-15T07:04:58;101707.69;;;1.63;98.56
33506;BME280;19843;51.040;13.782;2023-02-15T07:07:25;101700.59;;;1.68;98.46
33506;BME280;19843;51.040;13.782;2023-02-15T07:09:53;101698.66;;;1.85;98.04
33506;BME280;19843;51.040;13.782;2023-02-15T07:12:20;101689.88;;;1.83;97.61
33506;BME280;19843;51.040;13.782;2023-02-15T07:15:07;101693.31;;;1.92;97.45
33506;BME280;19843;51.040;13.782;2023-02-15T07:17:35;101681.72;;;2.02;97.47
33506;BME280;19843;51.040;13.782;2023-02-15T07:20:03;101680.84;;;2.04;97.22
33506;BME280;19843;51.040;13.782;2023-02-15T07:22:30;101683.22;;;2.27;96.26
33506;BME280;19843;51.040;13.782;2023-02-15T07:25:00;101681.44;;;2.28;96.19
33506;BME280;19843;51.040;13.782;2023-02-15T07:27:27;101682.16;;;2.41;95.46
33506;BME280;19843;51.040;13.782;2023-02-15T07:29:54;101667.91;;;2.51;95.17
33506;BME280;19843;51.040;13.782;2023-02-15T07:32:23;101673.00;;;2.63;94.79
33506;BME280;19843;51.040;13.782;2023-02-15T07:34:50;101672.00;;;2.75;93.68
33506;BME280;19843;51.040;13.782;2023-02-15T07:37:18;101669.13;;;2.89;93.03
33506;BME280;19843;51.040;13.782;2023-02-15T07:39:45;101674.22;;;3.01;92.18
33506;BME280;19843;51.040;13.782;2023-02-15T07:42:12;101663.56;;;3.04;91.30
33506;BME280;19843;51.040;13.782;2023-02-15T07:44:39;101667.78;;;3.19;91.03
33506;BME280;19843;51.040;13.782;2023-02-15T07:47:07;101660.59;;;3.24;89.49
33506;BME280;19843;51.040;13.782;2023-02-15T07:49:35;101657.78;;;3.35;89.14
33506;BME280;19843;51.040;13.782;2023-02-15T07:52:03;101654.09;;;3.45;88.62
33506;BME280;19843;51.040;13.782;2023-02-15T07:54:31;101648.72;;;3.48;88.39
33506;BME280;19843;51.040;13.782;2023-02-15T07:56:58;101643.13;;;3.64;86.95
33506;BME280;19843;51.040;13.782;2023-02-15T07:59:27;101641.28;;;3.69;87.25
33506;BME280;19843;51.040;13.782;2023-02-15T08:01:54;101635.97;;;3.69;86.35
33506;BME280;19843;51.040;13.782;2023-02-15T08:04:22;101638.41;;;3.80;85.88
33506;BME280;19843;51.040;13.782;2023-02-15T08:06:53;101633.69;;;3.95;85.93
33506;BME280;19843;51.040;13.782;2023-02-15T08:09:21;101636.16;;;4.05;84.97
33506;BME280;19843;51.040;13.782;2023-02-15T08:11:48;101630.78;;;4.08;84.76
33506;BME280;19843;51.040;13.782;2023-02-15T08:14:16;101628.84;;;4.16;84.54
33506;BME280;19843;51.040;13.782;2023-02-15T08:16:44;101618.97;;;4.23;83.72
33506;BME280;19843;51.040;13.782;2023-02-15T08:19:15;101617.84;;;4.33;82.77
33506;BME280;19843;51.040;13.782;2023-02-15T08:21:43;101627.38;;;4.43;82.79
33506;BME280;19843;51.040;13.782;2023-02-15T08:24:12;101620.91;;;4.55;82.18
33506;BME280;19843;51.040;13.782;2023-02-15T08:26:40;101618.88;;;4.66;81.10
33506;BME280;19843;51.040;13.782;2023-02-15T08:29:09;101624.03;;;4.72;81.61
33506;BME280;19843;51.040;13.782;2023-02-15T08:31:37;101614.22;;;4.76;80.75
33506;BME280;19843;51.040;13.782;2023-02-15T08:34:04;101611.25;;;4.88;80.26
33506;BME280;19843;51.040;13.782;2023-02-15T08:36:32;101610.69;;;4.75;79.61
33506;BME280;19843;51.040;13.782;2023-02-15T08:39:00;101608.66;;;4.87;80.22
33506;BME280;19843;51.040;13.782;2023-02-15T08:41:29;101609.63;;;4.82;79.87
33506;BME280;19843;51.040;13.782;2023-02-15T08:43:58;101609.16;;;4.65;80.09
33506;BME280;19843;51.040;13.782;2023-02-15T08:46:26;101608.44;;;4.96;79.47
33506;BME280;19843;51.040;13.782;2023-02-15T08:48:53;101602.75;;;5.11;78.75
33506;BME280;19843;51.040;13.782;2023-02-15T08:51:21;101603.50;;;5.16;79.04
33506;BME280;19843;51.040;13.782;2023-02-15T08:53:50;101603.69;;;5.09;78.78
33506;BME280;19843;51.040;13.782;2023-02-15T08:56:18;101614.13;;;5.16;78.56
33506;BME280;19843;51.040;13.782;2023-02-15T08:58:47;101610.25;;;5.30;78.12
33506;BME280;19843;51.040;13.782;2023-02-15T09:01:16;101611.56;;;5.13;77.83
33506;BME280;19843;51.040;13.782;2023-02-15T09:03:46;101608.19;;;5.41;78.09
33506;BME280;19843;51.040;13.782;2023-02-15T09:06:14;101608.06;;;5.46;77.29
33506;BME280;19843;51.040;13.782;2023-02-15T09:08:41;101612.72;;;5.36;77.50
33506;BME280;19843;51.040;13.782;2023-02-15T09:11:09;101604.81;;;5.34;77.01
33506;BME280;19843;51.040;13.782;2023-02-15T09:13:37;101597.31;;;5.49;76.96
33506;BME280;19843;51.040;13.782;2023-02-15T09:16:07;101603.09;;;5.64;77.10
33506;BME280;19843;51.040;13.782;2023-02-15T09:18:35;101601.56;;;5.89;76.02
33506;BME280;19843;51.040;13.782;2023-02-15T09:21:04;101591.66;;;5.95;75.54
33506;BME280;19843;51.040;13.782;2023-02-15T09:23:31;101599.09;;;5.81;76.21
33506;BME280;19843;51.040;13.782;2023-02-15T09:26:01;101598.56;;;6.01;75.76
33506;BME280;19843;51.040;13.782;2023-02-15T09:28:29;101590.22;;;6.13;75.14
33506;BME280;19843;51.040;13.782;2023-02-15T09:30:56;101598.69;;;5.96;75.05
33506;BME280;19843;51.040;13.782;2023-02-15T09:33:25;101586.78;;;6.10;75.37
33506;BME280;19843;51.040;13.782;2023-02-15T09:35:52;101592.25;;;6.35;74.45
33506;BME280;19843;51.040;13.782;2023-02-15T09:38:20;101594.88;;;6.36;73.81
33506;BME280;19843;51.040;13.782;2023-02-15T09:40:52;101580.44;;;6.43;73.58
33506;BME280;19843;51.040;13.782;2023-02-15T09:43:25;101582.81;;;6.53;73.24
33506;BME280;19843;51.040;13.782;2023-02-15T09:46:04;101585.72;;;6.45;73.02
33506;BME280;19843;51.040;13.782;2023-02-15T09:48:40;101580.97;;;6.55;73.27
33506;BME280;19843;51.040;13.782;2023-02-15T09:51:21;101578.91;;;6.63;72.86
33506;BME280;19843;51.040;13.782;2023-02-15T09:53:57;101580.69;;;6.64;72.88
33506;BME280;19843;51.040;13.782;2023-02-15T09:56:31;101585.94;;;6.94;72.40
33506;BME280;19843;51.040;13.782;2023-02-15T09:59:04;101593.88;;;6.95;71.70
33506;BME280;19843;51.040;13.782;2023-02-15T10:01:39;101591.63;;;7.09;71.30
33506;BME280;19843;51.040;13.782;2023-02-15T10:04:29;101587.78;;;7.18;71.11
33506;BME280;19843;51.040;13.782;2023-02-15T10:07:01;101584.50;;;7.10;71.17
33506;BME280;19843;51.040;13.782;2023-02-15T10:09:35;101579.97;;;7.12;70.84
33506;BME280;19843;51.040;13.782;2023-02-15T10:12:11;101571.81;;;7.17;71.05
33506;BME280;19843;51.040;13.782;2023-02-15T10:14:48;101576.88;;;7.24;71.47
33506;BME280;19843;51.040;13.782;2023-02-15T10:17:21;101564.16;;;7.06;71.59
33506;BME280;19843;51.040;13.782;2023-02-15T10:19:54;101558.91;;;7.04;72.01
33506;BME280;19843;51.040;13.782;2023-02-15T10:22:27;101552.28;;;6.89;71.89
33506;BME280;19843;51.040;13.782;2023-02-15T10:25:06;101557.09;;;6.78;73.32
33506;BME280;19843;51.040;13.782;2023-02-15T10:27:39;101551.22;;;6.95;72.40
33506;BME280;19843;51.040;13.782;2023-02-15T10:30:11;101553.41;;;7.09;72.09
33506;BME280;19843;51.040;13.782;2023-02-15T10:32:40;101550.53;;;7.40;71.54
33506;BME280;19843;51.040;13.782;2023-02-15T10:35:15;101545.34;;;7.61;71.04
33506;BME280;19843;51.040;13.782;2023-02-15T10:37:49;101548.69;;;7.42;70.62
33506;BME280;19843;51.040;13.782;2023-02-15T10:40:25;101539.91;;;7.64;70.39
33506;BME280;19843;51.040;13.782;2023-02-15T10:42:59;101540.03;;;7.36;70.92
33506;BME280;19843;51.040;13.782;2023-02-15T10:45:34;101539.75;;;7.68;70.51
33506;BME280;19843;51.040;13.782;2023-02-15T10:48:09;101532.81;;;7.63;70.07
33506;BME280;19843;51.040;13.782;2023-02-15T10:50:43;101532.97;;;7.58;69.59
33506;BME280;19843;51.040;13.782;2023-02-15T10:53:32;101532.94;;;7.60;70.03
33506;BME280;19843;51.040;13.782;2023-02-15T10:56:02;101520.09;;;7.69;69.75
33506;BME280;19843;51.040;13.782;2023-02-15T10:58:38;101520.34;;;7.63;69.24
33506;BME280;19843;51.040;13.782;2023-02-15T11:01:12;101521.28;;;7.62;69.59
33506;BME280;19843;51.040;13.782;2023-02-15T11:03:46;101517.34;;;7.72;69.52
33506;BME280;19843;51.040;13.782;2023-02-15T11:06:18;101504.81;;;7.74;69.14
33506;BME280;19843;51.040;13.782;2023-02-15T11:08:47;101505.44;;;7.58;69.49
33506;BME280;19843;51.040;13.782;2023-02-15T11:11:19;101500.25;;;7.77;69.05
33506;BME280;19843;51.040;13.782;2023-02-15T11:13:48;101499.00;;;7.63;69.36
33506;BME280;19843;51.040;13.782;2023-02-15T11:16:17;101494.31;;;7.70;69.44
33506;BME280;19843;51.040;13.782;2023-02-15T11:18:48;101492.84;;;7.85;68.92
33506;BME280;19843;51.040;13.782;2023-02-15T11:21:20;101493.47;;;7.91;68.62
33506;BME280;19843;51.040;13.782;2023-02-15T11:23:49;101495.03;;;7.73;68.30
33506;BME280;19843;51.040;13.782;2023-02-15T11:26:19;101490.19;;;7.61;68.01
33506;BME280;19843;51.040;13.782;2023-02-15T11:28:49;101491.91;;;7.62;68.77
33506;BME280;19843;51.040;13.782;2023-02-15T11:31:20;101491.78;;;7.89;68.15
33506;BME280;19843;51.040;13.782;2023-02-15T11:33:49;101490.47;;;7.77;68.47
33506;BME280;19843;51.040;13.782;2023-02-15T11:36:20;101488.78;;;7.74;68.43
33506;BME280;19843;51.040;13.782;2023-02-15T11:38:50;101488.50;;;7.82;67.98
33506;BME280;19843;51.040;13.782;2023-02-15T11:41:20;101486.63;;;7.84;67.94
33506;BME280;19843;51.040;13.782;2023-02-15T11:43:50;101476.69;;;7.64;68.07
33506;BME280;19843;51.040;13.782;2023-02-15T11:46:21;101480.78;;;7.74;67.98
33506;BME280;19843;51.040;13.782;2023-02-15T11:48:48;101477.22;;;7.98;68.45
33506;BME280;19843;51.040;13.782;2023-02-15T11:51:16;101475.25;;;8.25;67.68
33506;BME280;19843;51.040;13.782;2023-02-15T11:53:48;101481.97;;;8.13;66.84
33506;BME280;19843;51.040;13.782;2023-02-15T11:56:16;101485.16;;;7.99;66.95
33506;BME280;19843;51.040;13.782;2023-02-15T11:58:45;101467.91;;;8.08;66.97
33506;BME280;19843;51.040;13.782;2023-02-15T12:01:16;101480.16;;;8.13;66.57
33506;BME280;19843;51.040;13.782;2023-02-15T12:03:46;101471.13;;;7.94;66.93
33506;BME280;19843;51.040;13.782;2023-02-15T12:06:16;101468.16;;;8.02;67.07
33506;BME280;19843;51.040;13.782;2023-02-15T12:08:47;101459.94;;;7.84;67.04
33506;BME280;19843;51.040;13.782;2023-02-15T12:11:19;101460.47;;;7.70;66.87
33506;BME280;19843;51.040;13.782;2023-02-15T12:13:53;101453.44;;;7.68;67.34
33506;BME280;19843;51.040;13.782;2023-02-15T12:16:21;101457.91;;;7.91;67.11
33506;BME280;19843;51.040;13.782;2023-02-15T12:18:48;101457.47;;;8.02;66.33
33506;BME280;19843;51.040;13.782;2023-02-15T12:21:23;101463.91;;;7.96;66.00
33506;BME280;19843;51.040;13.782;2023-02-15T12:23:53;101456.03;;;7.93;66.17
33506;BME280;19843;51.040;13.782;2023-02-15T12:26:26;101449.75;;;7.94;66.37
33506;BME280;19843;51.040;13.782;2023-02-15T12:28:54;101449.16;;;8.09;65.93
33506;BME280;19843;51.040;13.782;2023-02-15T12:31:24;101444.34;;;7.95;66.07
33506;BME280;19843;51.040;13.782;2023-02-15T12:33:53;101439.94;;;7.94;66.23
33506;BME280;19843;51.040;13.782;2023-02-15T12:36:24;101436.84;;;8.05;66.15
33506;BME280;19843;51.040;13.782;2023-02-15T12:39:04;101432.75;;;8.19;65.89
33506;BME280;19843;51.040;13.782;2023-02-15T12:41:33;101420.91;;;8.24;65.64
33506;BME280;19843;51.040;13.782;2023-02-15T12:44:05;101419.44;;;8.17;65.24
33506;BME280;19843;51.040;13.782;2023-02-15T12:46:39;101409.31;;;8.03;65.63
33506;BME280;19843;51.040;13.782;2023-02-15T12:49:11;101414.97;;;7.95;65.88
33506;BME280;19843;51.040;13.782;2023-02-15T12:51:46;101419.09;;;8.04;65.51
33506;BME280;19843;51.040;13.782;2023-02-15T12:54:23;101409.44;;;8.00;65.84
33506;BME280;19843;51.040;13.782;2023-02-15T12:56:54;101410.81;;;8.10;65.28
33506;BME280;19843;51.040;13.782;2023-02-15T12:59:23;101410.69;;;8.13;65.06
33506;BME280;19843;51.040;13.782;2023-02-15T13:01:51;101400.31;;;8.06;64.95
33506;BME280;19843;51.040;13.782;2023-02-15T13:04:21;101413.22;;;7.94;65.45
33506;BME280;19843;51.040;13.782;2023-02-15T13:06:50;101406.19;;;7.92;65.51
33506;BME280;19843;51.040;13.782;2023-02-15T13:09:19;101405.91;;;8.00;65.28